Time;durP1;ratioP1;P1;durP2;ratioP2;P2;SDS_P1;SDS_P2;PMS_P1;PMS_P2;Temp;Humidity;BMP_temperature;BMP_pressure;BME280_temperature;BME280_humidity;BME280_pressure;Samples;Min_cycle;Max_cycle;Signal;HPM_P1;HPM_P2
2021/03/30 00:00:53;;;;;;;21.17;16.23;;;7.00;99.90;;;;;;4131581;28;20374;-81
2021/03/30 00:02:54;;;;;;;24.33;15.43;;;6.80;99.90;;;;;;4133001;28;20063;-81
2021/03/30 00:04:54;;;;;;;23.67;16.05;;;6.70;99.90;;;;;;4115604;28;20034;-81
2021/03/30 00:07:01;;;;;;;22.95;15.73;;;;;;;;;;4131232;28;20026;-80
2021/03/30 00:09:03;;;;;;;20.42;16.38;;;;;;;;;;4130839;28;20062;-80
2021/03/30 00:11:04;;;;;;;26.58;17.90;;;;;;;;;;4129190;28;20127;-80
2021/03/30 00:13:06;;;;;;;29.13;18.33;;;;;;;;;;4121923;28;20165;-80
2021/03/30 00:15:09;;;;;;;23.15;17.02;;;;;;;;;;4130781;28;20255;-80
2021/03/30 00:17:11;;;;;;;29.63;18.98;;;;;;;;;;4131774;28;20401;-80
2021/03/30 00:19:12;;;;;;;35.42;19.08;;;;;;;;;;4131393;28;20494;-81
2021/03/30 00:21:13;;;;;;;29.10;18.85;;;;;;;;;;4125796;28;20030;-81
2021/03/30 00:23:16;;;;;;;26.95;16.50;;;;;;;;;;4131195;28;20033;-80
2021/03/30 00:25:17;;;;;;;24.85;17.65;;;5.80;99.90;;;;;;4132795;28;20393;-80
2021/03/30 00:27:17;;;;;;;27.77;17.38;;;6.00;99.90;;;;;;4129732;28;20114;-80
2021/03/30 00:29:18;;;;;;;23.10;16.98;;;5.90;99.90;;;;;;4130870;28;20027;-82
2021/03/30 00:31:24;;;;;;;26.00;17.23;;;;;;;;;;4132054;28;20037;-81
2021/03/30 00:33:25;;;;;;;25.13;17.48;;;;;;;;;;4129524;28;20030;-80
2021/03/30 00:35:26;;;;;;;31.95;20.30;;;;;;;;;;4130110;28;20449;-81
2021/03/30 00:37:27;;;;;;;33.45;20.55;;;;;;;;;;4129683;28;20026;-80
2021/03/30 00:39:28;;;;;;;30.05;19.15;;;5.30;99.90;;;;;;4130444;28;20648;-80
2021/03/30 00:41:29;;;;;;;32.35;20.92;;;5.20;99.90;;;;;;4122978;28;20389;-81
2021/03/30 00:43:30;;;;;;;31.55;20.20;;;5.20;99.90;;;;;;4130810;28;20110;-80
2021/03/30 00:45:33;;;;;;;30.08;18.80;;;;;;;;;;4130516;28;20039;-80
2021/03/30 00:47:35;;;;;;;28.75;18.98;;;4.90;99.90;;;;;;4130806;28;20073;-81
2021/03/30 00:49:36;;;;;;;26.85;19.42;;;4.90;99.90;;;;;;4131033;28;20089;-81
2021/03/30 00:51:36;;;;;;;28.55;18.05;;;4.80;99.90;;;;;;4129599;28;20030;-82
2021/03/30 00:53:37;;;;;;;25.98;19.40;;;4.80;99.90;;;;;;4130907;28;20031;-82
2021/03/30 00:55:38;;;;;;;26.10;18.77;;;4.70;99.90;;;;;;4131003;28;20073;-80
2021/03/30 00:57:39;;;;;;;26.27;19.80;;;4.80;99.90;;;;;;4131223;28;20065;-80
2021/03/30 00:59:40;;;;;;;27.27;20.15;;;5.10;99.90;;;;;;4131795;28;20022;-81
2021/03/30 01:01:40;;;;;;;29.80;20.15;;;4.80;99.90;;;;;;4132021;28;20050;-81
2021/03/30 01:03:41;;;;;;;27.52;21.55;;;4.80;99.90;;;;;;4131123;28;20058;-81
2021/03/30 01:05:42;;;;;;;25.30;19.63;;;4.70;99.90;;;;;;4132001;28;20026;-80
2021/03/30 01:08:12;;;;;;;30.23;20.63;;;4.70;99.90;;;;;;4127261;28;20101;-81
2021/03/30 01:10:42;;;;;;;27.15;19.55;;;4.70;99.90;;;;;;4128775;28;20089;-80
2021/03/30 01:13:15;;;;;;;29.75;20.25;;;4.50;99.90;;;;;;4117551;28;20042;-80
2021/03/30 01:15:26;;;;;;;31.92;23.35;;;4.40;99.90;;;;;;4065682;29;20044;-80
2021/03/30 01:17:35;;;;;;;30.73;20.63;;;4.30;99.90;;;;;;4133089;28;20058;-80
2021/03/30 01:20:13;;;;;;;33.53;20.08;;;4.30;99.90;;;;;;4163113;28;20072;-80
2021/03/30 01:22:18;;;;;;;36.30;21.80;;;;;;;;;;4144427;28;20034;-80
2021/03/30 01:24:26;;;;;;;32.75;21.50;;;;;;;;;;4144579;28;20033;-81
2021/03/30 01:26:27;;;;;;;32.00;21.08;;;;;;;;;;4163063;28;20033;-80
2021/03/30 01:28:31;;;;;;;38.67;22.98;;;;;;;;;;4145836;28;20053;-80
2021/03/30 01:30:33;;;;;;;36.47;24.85;;;;;;;;;;4162574;28;20078;-81
2021/03/30 01:32:43;;;;;;;39.58;23.60;;;;;;;;;;4145500;28;20077;-81
2021/03/30 01:34:46;;;;;;;36.58;23.48;;;;;;;;;;4144287;28;20066;-81
2021/03/30 01:36:48;;;;;;;43.13;24.38;;;;;;;;;;4164159;28;20129;-81
2021/03/30 01:38:51;;;;;;;33.35;22.52;;;;;;;;;;4147173;28;20393;-81
2021/03/30 01:40:53;;;;;;;39.22;23.35;;;;;;;;;;4163816;28;20034;-80
2021/03/30 01:42:54;;;;;;;33.60;22.48;;;;;;;;;;4144896;28;20088;-81
2021/03/30 01:44:56;;;;;;;36.53;23.80;;;;;;;;;;4163426;28;20033;-80
2021/03/30 01:47:00;;;;;;;33.53;22.17;;;;;;;;;;4162350;28;20030;-81
2021/03/30 01:49:02;;;;;;;36.50;22.85;;;;;;;;;;4144225;28;20046;-81
2021/03/30 01:51:03;;;;;;;33.22;23.05;;;;;;;;;;4161078;28;20120;-81
2021/03/30 01:53:05;;;;;;;39.58;25.77;;;;;;;;;;4163495;28;20025;-80
2021/03/30 01:55:10;;;;;;;40.78;25.27;;;;;;;;;;4143655;28;20133;-81
2021/03/30 01:57:11;;;;;;;35.17;24.33;;;;;;;;;;4160136;28;20033;-81
2021/03/30 01:59:14;;;;;;;36.90;24.88;;;;;;;;;;4163317;28;20078;-80
2021/03/30 02:01:15;;;;;;;37.65;22.52;;;;;;;;;;4163093;28;20026;-80
2021/03/30 02:03:18;;;;;;;45.05;27.60;;;;;;;;;;4139853;28;20386;-80
2021/03/30 02:05:20;;;;;;;42.63;26.48;;;;;;;;;;4142460;28;20367;-80
2021/03/30 02:07:23;;;;;;;40.95;28.02;;;;;;;;;;4141251;28;20126;-80
2021/03/30 02:09:29;;;;;;;51.17;25.75;;;;;;;;;;4157902;28;20029;-80
2021/03/30 02:11:36;;;;;;;42.63;27.35;;;;;;;;;;4145034;28;20049;-80
2021/03/30 02:15:39;;;;;;;38.38;25.33;;;;;;;;;;4163550;28;20033;-79
2021/03/30 02:17:48;;;;;;;42.22;26.60;;;;;;;;;;4161863;28;20425;-80
2021/03/30 02:19:52;;;;;;;39.08;26.70;;;;;;;;;;4145009;28;20034;-80
2021/03/30 02:21:57;;;;;;;43.05;25.58;;;;;;;;;;4146304;28;20049;-80
2021/03/30 02:23:59;;;;;;;44.40;28.15;;;;;;;;;;4145662;28;20037;-80
2021/03/30 02:26:02;;;;;;;40.22;27.38;;;;;;;;;;4143687;28;20513;-80
2021/03/30 02:28:09;;;;;;;50.45;29.05;;;3.90;99.90;;;;;;4142840;28;20030;-82
2021/03/30 02:30:17;;;;;;;41.17;26.00;;;;;;;;;;4160560;28;20029;-80
2021/03/30 02:32:22;;;;;;;43.25;26.73;;;;;;;;;;4142458;28;20029;-79
2021/03/30 02:34:30;;;;;;;40.65;26.05;;;3.80;99.90;;;;;;4142405;28;20023;-80
2021/03/30 02:36:33;;;;;;;42.95;25.98;;;;;;;;;;4150070;28;20567;-80
2021/03/30 02:38:34;;;;;;;;;;;;;;;;;;4146204;28;20380;-80
2021/03/30 02:40:36;;;;;;;48.72;25.88;;;;;;;;;;4162733;28;19999;-80
2021/03/30 02:42:41;;;;;;;49.22;26.13;;;;;;;;;;4129438;28;20485;-80
2021/03/30 02:44:48;;;;;;;45.50;24.92;;;;;;;;;;4145429;28;20421;-81
2021/03/30 02:46:49;;;;;;;49.60;27.65;;;3.60;99.90;;;;;;4157828;28;20538;-81
2021/03/30 02:48:52;;;;;;;41.53;26.40;;;3.60;99.90;;;;;;4162947;28;20042;-81
2021/03/30 02:50:53;;;;;;;48.78;27.30;;;3.60;99.90;;;;;;4145350;28;20057;-80
2021/03/30 02:52:56;;;;;;;46.15;27.38;;;3.60;99.90;;;;;;4148118;28;20476;-80
2021/03/30 02:54:57;;;;;;;43.35;25.67;;;3.60;99.90;;;;;;4134832;28;20034;-80
2021/03/30 02:56:59;;;;;;;49.67;29.27;;;3.70;99.90;;;;;;4136683;28;20030;-80
2021/03/30 02:59:00;;;;;;;48.08;26.90;;;3.70;99.90;;;;;;4158551;28;20057;-80
2021/03/30 03:01:01;;;;;;;49.42;27.42;;;3.70;99.90;;;;;;4150816;28;20037;-81
2021/03/30 03:03:04;;;;;;;47.38;26.15;;;3.70;99.90;;;;;;4157161;28;20554;-80
2021/03/30 03:05:07;;;;;;;39.55;24.55;;;3.70;99.90;;;;;;4134467;28;20101;-80
2021/03/30 03:07:07;;;;;;;40.30;25.65;;;3.60;99.90;;;;;;4162722;28;20105;-80
2021/03/30 03:09:09;;;;;;;45.80;24.48;;;3.50;99.90;;;;;;4161644;28;20029;-80
2021/03/30 03:11:12;;;;;;;50.85;26.17;;;3.40;99.90;;;;;;4138588;28;20071;-80
2021/03/30 03:13:15;;;;;;;46.63;26.45;;;3.30;99.90;;;;;;4157626;28;20037;-80
2021/03/30 03:15:18;;;;;;;53.15;28.33;;;3.20;99.90;;;;;;4140826;28;20517;-81
2021/03/30 03:17:19;;;;;;;49.35;28.20;;;3.30;99.90;;;;;;4162680;28;20030;-79
2021/03/30 03:19:22;;;;;;;43.38;26.23;;;3.40;99.90;;;;;;4144158;28;20116;-79
2021/03/30 03:21:24;;;;;;;54.50;26.90;;;;;;;;;;4144934;28;20033;-80
2021/03/30 03:23:26;;;;;;;48.33;27.00;;;3.30;99.90;;;;;;4143719;28;20041;-80
2021/03/30 03:25:27;;;;;;;51.05;26.80;;;3.20;99.90;;;;;;4162537;28;20030;-80
2021/03/30 03:27:28;;;;;;;52.63;27.58;;;3.20;99.90;;;;;;4145455;28;20096;-80
2021/03/30 03:29:29;;;;;;;54.33;27.40;;;3.20;99.90;;;;;;4144823;28;20050;-80
2021/03/30 03:31:30;;;;;;;52.47;27.88;;;3.10;99.90;;;;;;4141928;28;20049;-80
2021/03/30 03:33:32;;;;;;;48.95;26.02;;;3.00;99.90;;;;;;4144814;28;20033;-82
2021/03/30 03:35:33;;;;;;;52.53;28.00;;;3.00;99.90;;;;;;4140723;28;20457;-81
2021/03/30 03:37:43;;;;;;;46.22;27.38;;;2.90;99.90;;;;;;4155595;28;20034;-80
2021/03/30 03:39:44;;;;;;;58.70;26.88;;;2.90;99.90;;;;;;4144215;28;20030;-80
2021/03/30 03:41:46;;;;;;;56.85;27.42;;;2.90;99.90;;;;;;4145017;28;20034;-79
2021/03/30 03:43:49;;;;;;;56.65;30.00;;;2.90;99.90;;;;;;4144797;28;20030;-80
2021/03/30 03:45:49;;;;;;;50.03;27.05;;;2.80;99.90;;;;;;4143125;28;20073;-80
2021/03/30 03:47:50;;;;;;;48.28;25.58;;;2.80;99.90;;;;;;4152447;28;20041;-80
2021/03/30 03:49:51;;;;;;;60.78;28.35;;;2.80;99.90;;;;;;4143127;28;20041;-80
2021/03/30 03:52:11;;;;;;;52.90;26.83;;;2.70;99.90;;;;;;4146277;28;20026;-79
2021/03/30 03:54:17;;;;;;;48.97;25.45;;;2.70;99.90;;;;;;4163242;28;20018;-80
2021/03/30 03:56:23;;;;;;;58.10;29.33;;;2.60;99.90;;;;;;4140221;28;20541;-80
2021/03/30 03:58:28;;;;;;;56.67;28.50;;;2.60;99.90;;;;;;4146510;28;20041;-80
2021/03/30 04:00:29;;;;;;;60.85;29.98;;;2.60;99.90;;;;;;4164153;28;20037;-80
2021/03/30 04:02:37;;;;;;;55.13;28.83;;;2.60;99.90;;;;;;4135733;28;20058;-80
2021/03/30 04:04:46;;;;;;;63.45;28.30;;;2.60;99.90;;;;;;4147706;28;20038;-80
2021/03/30 04:06:51;;;;;;;54.65;29.00;;;2.50;99.90;;;;;;4134858;28;20042;-80
2021/03/30 04:08:55;;;;;;;59.67;28.33;;;2.50;99.90;;;;;;4134596;28;20536;-80
2021/03/30 04:10:59;;;;;;;52.97;28.25;;;2.40;99.90;;;;;;4165299;28;20069;-79
2021/03/30 04:13:01;;;;;;;51.60;26.65;;;2.40;99.90;;;;;;4146599;28;20033;-81
2021/03/30 04:15:02;;;;;;;56.55;27.67;;;2.40;99.90;;;;;;4150218;28;20049;-80
2021/03/30 04:17:03;;;;;;;50.20;25.63;;;2.40;99.90;;;;;;4149462;28;20033;-81
2021/03/30 04:19:09;;;;;;;61.38;28.67;;;2.40;99.90;;;;;;4152018;28;20078;-81
2021/03/30 04:21:30;;;;;;;54.55;26.77;;;2.30;99.90;;;;;;4143748;28;20068;-82
2021/03/30 04:23:32;;;;;;;60.35;27.30;;;2.30;99.90;;;;;;4164442;28;20042;-80
2021/03/30 04:25:33;;;;;;;50.30;26.67;;;2.20;99.90;;;;;;4147262;28;20042;-80
2021/03/30 04:27:34;;;;;;;59.75;25.23;;;2.20;99.90;;;;;;4164829;28;20383;-79
2021/03/30 04:29:35;;;;;;;61.63;26.42;;;2.20;99.90;;;;;;4146708;28;20397;-79
2021/03/30 04:31:36;;;;;;;62.05;30.33;;;2.10;99.90;;;;;;4149666;28;20042;-81
2021/03/30 04:33:36;;;;;;;62.90;30.08;;;2.10;99.90;;;;;;4164604;28;20431;-81
2021/03/30 04:35:37;;;;;;;54.40;26.83;;;2.10;99.90;;;;;;4147265;28;20033;-81
2021/03/30 04:37:38;;;;;;;58.65;28.63;;;2.00;99.90;;;;;;4164850;28;20484;-81
2021/03/30 04:39:39;;;;;;;65.38;26.77;;;2.10;99.90;;;;;;4164953;28;20088;-81
2021/03/30 04:41:39;;;;;;;55.95;26.38;;;2.10;99.90;;;;;;4147358;28;20037;-81
2021/03/30 04:43:40;;;;;;;58.17;27.42;;;2.00;99.90;;;;;;4164277;28;20041;-81
2021/03/30 04:45:41;;;;;;;64.57;30.35;;;1.80;99.90;;;;;;4145073;28;20026;-80
2021/03/30 04:47:41;;;;;;;70.78;29.15;;;1.90;99.90;;;;;;4164385;28;20028;-81
2021/03/30 04:49:42;;;;;;;59.97;29.02;;;2.00;99.90;;;;;;4163124;28;20120;-80
2021/03/30 04:51:43;;;;;;;62.33;30.52;;;2.10;99.90;;;;;;4139813;28;20057;-80
2021/03/30 04:53:43;;;;;;;60.90;28.08;;;2.20;99.90;;;;;;4161542;28;20033;-81
2021/03/30 04:55:44;;;;;;;60.00;28.63;;;2.10;99.90;;;;;;4148428;28;20044;-80
2021/03/30 04:57:44;;;;;;;63.92;29.15;;;2.10;99.90;;;;;;4162885;28;20097;-80
2021/03/30 04:59:45;;;;;;;54.42;27.77;;;2.00;99.90;;;;;;4164238;28;20041;-81
2021/03/30 05:01:46;;;;;;;71.55;29.42;;;2.00;99.90;;;;;;4164480;28;20473;-80
2021/03/30 05:03:47;;;;;;;75.47;32.05;;;2.00;99.90;;;;;;4163745;28;20400;-81
2021/03/30 05:05:47;;;;;;;75.75;31.92;;;2.20;99.90;;;;;;4152473;28;20109;-80
2021/03/30 05:07:48;;;;;;;68.68;31.65;;;2.30;99.90;;;;;;4146082;28;20450;-81
2021/03/30 05:09:49;;;;;;;67.75;31.60;;;2.30;99.90;;;;;;4133857;28;20042;-80
2021/03/30 05:11:51;;;;;;;68.93;31.52;;;2.40;99.90;;;;;;4152740;28;20041;-80
2021/03/30 05:13:51;;;;;;;71.03;29.92;;;2.30;99.90;;;;;;4146437;28;20040;-81
2021/03/30 05:15:52;;;;;;;70.70;30.08;;;2.20;99.90;;;;;;4145549;28;20592;-81
2021/03/30 05:17:52;;;;;;;67.60;30.73;;;2.20;99.90;;;;;;4163997;28;20049;-81
2021/03/30 05:19:53;;;;;;;74.63;32.60;;;2.30;99.90;;;;;;4146572;28;20030;-80
2021/03/30 05:21:53;;;;;;;69.75;32.22;;;2.30;99.90;;;;;;4147016;28;20038;-80
2021/03/30 05:23:54;;;;;;;70.47;34.90;;;2.40;99.90;;;;;;4162171;28;20137;-79
2021/03/30 05:25:55;;;;;;;70.60;29.52;;;2.40;99.90;;;;;;4160818;28;20037;-79
2021/03/30 05:27:55;;;;;;;73.22;33.33;;;2.40;99.90;;;;;;4163950;28;20045;-81
2021/03/30 05:29:56;;;;;;;63.60;30.85;;;2.30;99.90;;;;;;4164211;28;20090;-80
2021/03/30 05:31:58;;;;;;;61.55;31.73;;;2.30;99.90;;;;;;4139524;28;20042;-80
2021/03/30 05:33:59;;;;;;;69.78;30.38;;;2.40;99.90;;;;;;4147612;28;20034;-81
2021/03/30 05:36:00;;;;;;;75.95;33.53;;;2.30;99.90;;;;;;4155638;28;20412;-80
2021/03/30 05:38:01;;;;;;;88.93;34.63;;;2.40;99.90;;;;;;4147846;28;20018;-81
2021/03/30 05:40:04;;;;;;;80.70;32.33;;;2.50;99.90;;;;;;4149407;28;20129;-81
2021/03/30 05:42:06;;;;;;;74.50;33.38;;;2.60;99.90;;;;;;4155876;28;20041;-81
2021/03/30 05:44:08;;;;;;;74.70;31.92;;;2.70;99.90;;;;;;4161283;28;20018;-78
2021/03/30 05:46:09;;;;;;;75.13;33.10;;;2.80;99.90;;;;;;4163732;28;20026;-79
2021/03/30 05:48:13;;;;;;;83.15;33.08;;;2.80;99.90;;;;;;4146149;28;20073;-78
2021/03/30 05:50:18;;;;;;;77.47;34.75;;;3.00;99.90;;;;;;4145988;28;20022;-80
2021/03/30 05:52:29;;;;;;;80.85;33.83;;;3.10;99.90;;;;;;4163827;28;20018;-81
2021/03/30 05:54:35;;;;;;;76.15;34.30;;;3.30;99.90;;;;;;4145680;28;20148;-79
2021/03/30 05:56:39;;;;;;;80.03;35.80;;;3.30;99.90;;;;;;4140604;28;20429;-79
2021/03/30 05:58:43;;;;;;;82.88;34.55;;;3.30;99.90;;;;;;4163943;28;20116;-78
2021/03/30 06:00:46;;;;;;;76.03;32.92;;;3.40;99.90;;;;;;4165409;28;20030;-79
2021/03/30 06:02:50;;;;;;;78.37;35.23;;;3.50;99.90;;;;;;4145441;28;20228;-78
2021/03/30 06:04:51;;;;;;;75.70;34.85;;;3.60;99.90;;;;;;4146597;28;20030;-79
2021/03/30 06:06:51;;;;;;;88.75;35.85;;;3.70;99.90;;;;;;4164244;28;20064;-77
2021/03/30 06:08:52;;;;;;;82.55;33.67;;;3.80;99.90;;;;;;4142916;28;20397;-81
2021/03/30 06:10:58;;;;;;;82.60;35.83;;;3.90;99.90;;;;;;4149488;28;20045;-81
2021/03/30 06:15:34;;;;;;;80.82;35.13;;;4.10;99.90;;;;;;4140689;28;20030;-77
2021/03/30 06:17:46;;;;;;;73.05;35.13;;;4.20;99.90;;;;;;4132872;28;20034;-78
2021/03/30 06:19:52;;;;;;;77.78;33.65;;;4.30;99.90;;;;;;4121652;28;20053;-76
2021/03/30 06:22:00;;;;;;;75.30;34.20;;;4.40;99.90;;;;;;4116044;28;20042;-76
2021/03/30 06:24:01;;;;;;;77.97;32.70;;;4.40;99.90;;;;;;4129166;28;20030;-76
2021/03/30 06:26:02;;;;;;;75.88;35.20;;;4.40;99.90;;;;;;4121482;28;20057;-78
2021/03/30 06:28:29;;;;;;;77.10;35.28;;;4.50;99.90;;;;;;4115832;28;20081;-78
2021/03/30 06:30:30;;;;;;;76.97;36.65;;;4.60;99.90;;;;;;4118333;28;20124;-77
2021/03/30 06:32:32;;;;;;;76.28;34.20;;;4.70;99.90;;;;;;4125102;28;20062;-75
2021/03/30 06:34:33;;;;;;;75.45;33.75;;;4.80;99.90;;;;;;4120709;28;20038;-77
2021/03/30 06:36:34;;;;;;;64.22;32.28;;;4.80;99.90;;;;;;4126954;28;20163;-77
2021/03/30 06:38:49;;;;;;;69.15;34.13;;;4.90;99.90;;;;;;4123613;28;20494;-75
2021/03/30 06:40:51;;;;;;;69.93;33.72;;;4.90;99.90;;;;;;4126833;28;20031;-75
2021/03/30 06:42:57;;;;;;;70.68;33.03;;;5.00;99.90;;;;;;4126912;28;20470;-76
2021/03/30 06:44:57;;;;;;;64.60;33.22;;;5.10;99.90;;;;;;4127418;28;20505;-76
2021/03/30 06:47:14;;;;;;;58.92;31.25;;;;;;;;;;4127481;28;20045;-75
2021/03/30 06:49:19;;;;;;;67.20;33.42;;;5.30;99.90;;;;;;4121348;28;20628;-76
2021/03/30 06:51:21;;;;;;;60.15;34.42;;;;;;;;;;4118489;28;20483;-76
2021/03/30 06:53:27;;;;;;;67.68;33.28;;;;;;;;;;4142796;28;20045;-75
2021/03/30 06:55:31;;;;;;;61.47;33.72;;;;;;;;;;4144361;28;20034;-76
2021/03/30 06:57:38;;;;;;;61.90;31.27;;;;;;;;;;4135018;28;20042;-76
2021/03/30 06:59:42;;;;;;;59.78;30.92;;;6.20;99.90;;;;;;4124106;28;20056;-75
2021/03/30 07:01:45;;;;;;;60.38;31.20;;;6.30;99.90;;;;;;4127618;28;20057;-75
2021/03/30 07:03:46;;;;;;;55.30;31.83;;;6.50;99.90;;;;;;4124498;28;20026;-75
2021/03/30 07:05:49;;;;;;;60.63;30.90;;;6.70;99.90;;;;;;4129219;28;20436;-75
2021/03/30 07:08:02;;;;;;;58.47;31.23;;;6.80;99.90;;;;;;4128482;28;20658;-77
2021/03/30 07:10:03;;;;;;;51.05;30.67;;;6.80;99.90;;;;;;4128908;28;20058;-75
2021/03/30 07:12:07;;;;;;;50.03;29.02;;;6.90;99.90;;;;;;4128635;28;20042;-75
2021/03/30 07:14:07;;;;;;;;;;;7.00;99.90;;;;;;4123304;28;20041;-75
2021/03/30 07:16:23;;;;;;;54.75;29.08;;;7.10;99.90;;;;;;4129910;28;20384;-75
2021/03/30 07:18:24;;;;;;;62.47;29.38;;;7.30;99.90;;;;;;4111591;28;20395;-75
2021/03/30 07:20:26;;;;;;;47.15;28.15;;;;;;;;;;4127895;28;20050;-75
2021/03/30 07:22:30;;;;;;;56.83;30.85;;;;;;;;;;4124893;28;20041;-75
2021/03/30 07:24:40;;;;;;;54.08;30.40;;;;;;;;;;4128228;28;20053;-75
2021/03/30 07:26:44;;;;;;;52.78;28.05;;;;;;;;;;4126662;28;20130;-75
2021/03/30 07:28:58;;;;;;;51.30;30.00;;;;;;;;;;4123849;28;20062;-75
2021/03/30 07:30:58;;;;;;;;;;;;;;;;;;4128284;28;20042;-75
2021/03/30 07:33:19;;;;;;;54.40;33.30;;;;;;;;;;4127865;28;19960;-75
2021/03/30 07:35:22;;;;;;;56.38;30.77;;;;;;;;;;4130578;28;20442;-75
2021/03/30 07:37:39;;;;;;;47.42;28.45;;;;;;;;;;4131335;28;20061;-75
2021/03/30 07:39:44;;;;;;;60.25;31.33;;;;;;;;;;4129171;28;20046;-75
2021/03/30 07:41:47;;;;;;;55.13;30.35;;;;;;;;;;4130941;28;20050;-76
2021/03/30 07:43:49;;;;;;;47.33;28.75;;;;;;;;;;4129203;28;20466;-75
2021/03/30 07:45:53;;;;;;;56.58;29.25;;;8.80;99.90;;;;;;4128629;28;20486;-76
2021/03/30 07:47:54;;;;;;;48.45;29.88;;;9.00;99.90;;;;;;4126833;28;20442;-75
2021/03/30 07:49:55;;;;;;;46.00;29.48;;;9.10;99.90;;;;;;4127864;28;20046;-75
2021/03/30 07:52:16;;;;;;;45.90;27.95;;;;;;;;;;4129821;28;20452;-75
2021/03/30 07:54:18;;;;;;;45.53;27.25;;;;;;;;;;4131499;28;20038;-74
2021/03/30 07:56:22;;;;;;;52.08;30.58;;;;;;;;;;4130874;28;20030;-75
2021/03/30 07:58:35;;;;;;;50.00;29.58;;;;;;;;;;4130560;28;20035;-75
2021/03/30 08:00:41;;;;;;;50.22;28.25;;;;;;;;;;4132028;28;20046;-76
2021/03/30 08:02:46;;;;;;;46.22;28.42;;;;;;;;;;4126192;28;20504;-75
2021/03/30 08:05:01;;;;;;;49.47;29.83;;;;;;;;;;4120534;28;20035;-76
2021/03/30 08:07:03;;;;;;;49.92;29.67;;;;;;;;;;4130000;28;20042;-77
2021/03/30 08:09:07;;;;;;;51.17;29.08;;;10.30;99.90;;;;;;4129996;28;20026;-76
2021/03/30 08:11:08;;;;;;;58.05;33.88;;;;;;;;;;4128757;28;20042;-76
2021/03/30 08:13:28;;;;;;;53.25;29.80;;;;;;;;;;4130430;28;20038;-76
2021/03/30 08:15:43;;;;;;;47.95;30.63;;;10.50;99.90;;;;;;4130686;28;20200;-76
2021/03/30 08:17:48;;;;;;;48.67;29.10;;;;;;;;;;4133294;28;20029;-75
2021/03/30 08:19:56;;;;;;;46.83;31.23;;;;;;;;;;4145839;28;20062;-75
2021/03/30 08:22:02;;;;;;;57.70;30.83;;;;;;;;;;4145726;28;20021;-75
2021/03/30 08:24:02;;;;;;;50.47;30.42;;;;;;;;;;4161486;28;20744;-77
2021/03/30 08:26:20;;;;;;;46.92;29.65;;;;;;;;;;4163730;28;20034;-75
2021/03/30 08:28:40;;;;;;;59.53;32.85;;;;;;;;;;4137563;28;20109;-75
2021/03/30 08:30:41;;;;;;;43.97;29.10;;;;;;;;;;4136701;28;20128;-75
2021/03/30 08:32:47;;;;;;;54.30;32.20;;;;;;;;;;4130200;28;20038;-76
2021/03/30 08:34:48;;;;;;;48.92;30.23;;;;;;;;;;4162765;28;20705;-76
2021/03/30 08:36:58;;;;;;;54.67;33.80;;;;;;;;;;4162336;28;20117;-74
2021/03/30 08:39:01;;;;;;;50.90;30.60;;;;;;;;;;4142499;28;20030;-75
2021/03/30 08:41:05;;;;;;;54.38;32.25;;;;;;;;;;4155365;28;20129;-77
2021/03/30 08:43:14;;;;;;;44.13;30.35;;;12.50;99.90;;;;;;4147151;28;20037;-75
2021/03/30 08:45:14;;;;;;;48.75;32.58;;;12.50;99.90;;;;;;4145858;28;20037;-75
2021/03/30 08:47:42;;;;;;;56.78;31.80;;;12.70;99.90;;;;;;4163237;28;20029;-76
2021/03/30 08:49:43;;;;;;;53.83;31.80;;;12.90;99.90;;;;;;4144305;28;20034;-75
2021/03/30 08:51:44;;;;;;;54.83;34.97;;;13.10;99.90;;;;;;4143790;28;20045;-75
2021/03/30 08:53:46;;;;;;;58.90;34.60;;;13.20;99.90;;;;;;4157662;28;20369;-76
2021/03/30 08:55:47;;;;;;;49.85;32.33;;;13.40;99.90;;;;;;4145635;28;20038;-78
2021/03/30 08:57:52;;;;;;;66.47;37.95;;;13.60;99.90;;;;;;4161229;28;20408;-75
2021/03/30 08:59:52;;;;;;;66.20;40.45;;;13.70;99.90;;;;;;4160790;28;20031;-75
2021/03/30 09:02:02;;;;;;;72.45;44.03;;;13.90;99.90;;;;;;4162805;28;20052;-75
2021/03/30 09:04:03;;;;;;;80.85;43.10;;;14.10;99.90;;;;;;4146504;28;20069;-76
2021/03/30 09:06:05;;;;;;;75.32;43.67;;;14.40;99.90;;;;;;4155998;28;20044;-73
2021/03/30 09:08:07;;;;;;;60.03;36.13;;;14.60;99.90;;;;;;4153791;28;20099;-75
2021/03/30 09:10:10;;;;;;;65.22;40.55;;;14.80;99.90;;;;;;4160434;28;20041;-76
2021/03/30 09:12:17;;;;;;;72.03;44.13;;;15.00;99.90;;;;;;4154949;28;20026;-75
2021/03/30 09:14:22;;;;;;;76.85;44.20;;;15.20;99.90;;;;;;4160097;28;20147;-75
2021/03/30 09:16:23;;;;;;;71.07;43.30;;;15.50;99.90;;;;;;4144213;28;20030;-76
2021/03/30 09:18:26;;;;;;;76.65;43.45;;;15.70;99.90;;;;;;4146612;28;20512;-76
2021/03/30 09:20:30;;;;;;;65.45;40.88;;;15.90;99.90;;;;;;4160359;28;20536;-75
2021/03/30 09:22:45;;;;;;;61.97;39.55;;;16.10;99.90;;;;;;4140151;28;20061;-76
2021/03/30 09:27:11;;;;;;;65.72;37.45;;;16.60;99.90;;;;;;4159387;28;20405;-76
2021/03/30 09:29:16;;;;;;;64.55;39.83;;;16.90;99.90;;;;;;4141754;28;20022;-74
2021/03/30 09:31:17;;;;;;;74.35;44.05;;;17.10;99.90;;;;;;4154859;28;20496;-74
2021/03/30 09:33:18;;;;;;;56.70;36.03;;;17.30;99.90;;;;;;4159118;28;20018;-74
2021/03/30 09:35:24;;;;;;;60.83;40.33;;;17.80;99.90;;;;;;4152629;28;20266;-74
2021/03/30 09:37:38;;;;;;;48.22;32.70;;;17.90;99.90;;;;;;4151187;28;20034;-75
2021/03/30 09:39:39;;;;;;;43.67;29.05;;;18.00;99.90;;;;;;4130542;28;20068;-76
2021/03/30 09:41:42;;;;;;;41.97;29.20;;;;;;;;;;4147576;28;20045;-76
2021/03/30 09:43:43;;;;;;;35.70;24.90;;;;;;;;;;4161973;28;20385;-76
2021/03/30 09:45:44;;;;;;;29.63;20.52;;;18.70;99.90;;;;;;4145009;28;20120;-76
2021/03/30 09:47:45;;;;;;;24.77;18.05;;;19.00;98.90;;;;;;4141067;28;20027;-76
2021/03/30 09:49:46;;;;;;;29.20;18.45;;;;;;;;;;4159371;28;20029;-77
2021/03/30 09:51:48;;;;;;;26.73;18.75;;;;;;;;;;4138103;28;20034;-76
2021/03/30 09:53:49;;;;;;;24.60;16.23;;;19.60;97.30;;;;;;4144608;28;20026;-76
2021/03/30 09:55:49;;;;;;;25.48;14.93;;;19.60;92.10;;;;;;4162787;28;20152;-75
2021/03/30 09:57:58;;;;;;;21.85;15.80;;;19.70;88.90;;;;;;4159684;28;20235;-76
2021/03/30 10:00:00;;;;;;;25.75;16.88;;;19.90;90.40;;;;;;4144607;28;20100;-75
2021/03/30 10:02:02;;;;;;;26.08;16.60;;;20.10;91.10;;;;;;4162063;28;20034;-77
2021/03/30 10:04:03;;;;;;;26.10;16.63;;;20.40;88.80;;;;;;4135944;28;20032;-76
2021/03/30 10:06:19;;;;;;;25.70;16.08;;;20.50;89.70;;;;;;4162311;28;20099;-76
2021/03/30 10:08:22;;;;;;;22.63;17.67;;;20.80;90.40;;;;;;4151274;28;20033;-76
2021/03/30 10:10:22;;;;;;;33.90;17.70;;;21.00;84.10;;;;;;4141913;28;20040;-76
2021/03/30 10:12:28;;;;;;;27.30;18.40;;;21.30;78.90;;;;;;4162110;28;20120;-76
2021/03/30 10:14:29;;;;;;;27.23;18.98;;;21.40;78.60;;;;;;4140077;28;20523;-76
2021/03/30 10:16:29;;;;;;;29.25;17.52;;;21.50;86.50;;;;;;4145186;28;20038;-76
2021/03/30 10:18:30;;;;;;;23.05;15.55;;;21.80;80.70;;;;;;4146407;28;20054;-77
2021/03/30 10:20:54;;;;;;;24.45;15.10;;;22.00;74.70;;;;;;4161389;28;20037;-76
2021/03/30 10:22:54;;;;;;;25.55;15.68;;;22.00;69.90;;;;;;4162319;28;20043;-76
2021/03/30 10:25:16;;;;;;;27.38;18.92;;;21.90;71.30;;;;;;4160036;28;20060;-76
2021/03/30 10:27:17;;;;;;;26.52;17.75;;;21.70;76.30;;;;;;4133242;28;20045;-76
2021/03/30 10:29:33;;;;;;;23.83;18.10;;;21.80;84.00;;;;;;4142779;28;20113;-76
2021/03/30 10:33:48;;;;;;;27.80;15.45;;;22.00;71.70;;;;;;4155207;28;20030;-76
2021/03/30 10:35:49;;;;;;;21.20;15.93;;;22.40;72.90;;;;;;4158740;28;20037;-76
2021/03/30 10:37:51;;;;;;;24.67;16.77;;;22.80;70.80;;;;;;4144597;28;20893;-76
2021/03/30 10:40:03;;;;;;;27.02;15.70;;;23.10;71.40;;;;;;4161089;28;20033;-76
2021/03/30 10:42:07;;;;;;;23.20;16.13;;;23.80;65.80;;;;;;4148349;28;20022;-76
2021/03/30 10:44:10;;;;;;;22.58;16.40;;;;;;;;;;4137787;28;20504;-76
2021/03/30 10:46:21;;;;;;;22.50;17.40;;;24.20;91.60;;;;;;4162095;28;20025;-76
2021/03/30 10:48:21;;;;;;;22.70;16.17;;;24.40;66.40;;;;;;4144322;28;20284;-77
2021/03/30 10:50:22;;;;;;;23.45;15.75;;;24.50;64.50;;;;;;4143821;28;20034;-77
2021/03/30 10:52:32;;;;;;;22.10;15.93;;;24.50;61.80;;;;;;4161224;28;20033;-77
2021/03/30 10:54:34;;;;;;;23.08;14.00;;;24.30;59.80;;;;;;4141928;28;20569;-76
2021/03/30 10:56:35;;;;;;;21.17;14.43;;;24.30;59.90;;;;;;4161384;28;20053;-76
2021/03/30 10:58:36;;;;;;;20.02;14.85;;;24.50;59.40;;;;;;4140239;28;20832;-77
2021/03/30 11:00:37;;;;;;;23.27;13.65;;;24.40;59.80;;;;;;4143697;28;20072;-76
2021/03/30 11:02:38;;;;;;;21.77;15.15;;;24.20;59.70;;;;;;4136263;28;20043;-76
2021/03/30 11:04:40;;;;;;;19.75;14.95;;;24.00;61.30;;;;;;4137691;28;20045;-76
2021/03/30 11:06:42;;;;;;;22.02;16.88;;;24.10;63.80;;;;;;4143500;28;20042;-76
2021/03/30 11:08:43;;;;;;;23.23;15.60;;;24.30;59.10;;;;;;4161788;28;20083;-76